sensor_id;sensor_type;location;lat;lon;timestamp;P1;durP1;ratioP1;P2;durP2;ratioP2
32138;SDS011;18644;48.700;9.210;2023-07-08T00:00:20;5.55;;;3.63;;
32138;SDS011;18644;48.700;9.210;2023-07-08T00:02:49;6.47;;;3.60;;
32138;SDS011;18644;48.700;9.210;2023-07-08T00:05:18;5.22;;;3.42;;
32138;SDS011;18644;48.700;9.210;2023-07-08T00:07:49;6.10;;;3.80;;
32138;SDS011;18644;48.700;9.210;2023-07-08T00:10:16;5.15;;;3.90;;
32138;SDS011;18644;48.700;9.210;2023-07-08T00:12:47;7.82;;;3.60;;
32138;SDS011;18644;48.700;9.210;2023-07-08T00:15:17;4.40;;;3.00;;
32138;SDS011;18644;48.700;9.210;2023-07-08T00:17:45;7.75;;;4.65;;
32138;SDS011;18644;48.700;9.210;2023-07-08T00:20:13;6.50;;;3.95;;
32138;SDS011;18644;48.700;9.210;2023-07-08T00:22:43;6.40;;;3.95;;
32138;SDS011;18644;48.700;9.210;2023-07-08T00:25:13;5.78;;;3.85;;
32138;SDS011;18644;48.700;9.210;2023-07-08T00:27:40;6.38;;;4.28;;
32138;SDS011;18644;48.700;9.210;2023-07-08T00:30:11;6.50;;;4.20;;
32138;SDS011;18644;48.700;9.210;2023-07-08T00:35:19;4.88;;;3.08;;
32138;SDS011;18644;48.700;9.210;2023-07-08T00:37:48;4.93;;;3.75;;
32138;SDS011;18644;48.700;9.210;2023-07-08T00:40:21;5.07;;;3.42;;
32138;SDS011;18644;48.700;9.210;2023-07-08T00:42:50;4.78;;;3.47;;
32138;SDS011;18644;48.700;9.210;2023-07-08T00:45:26;6.72;;;3.70;;
32138;SDS011;18644;48.700;9.210;2023-07-08T00:48:05;6.63;;;4.03;;
32138;SDS011;18644;48.700;9.210;2023-07-08T00:50:38;4.85;;;3.63;;
32138;SDS011;18644;48.700;9.210;2023-07-08T00:55:55;4.88;;;3.70;;
32138;SDS011;18644;48.700;9.210;2023-07-08T00:58:29;7.35;;;3.92;;
32138;SDS011;18644;48.700;9.210;2023-07-08T01:00:59;5.85;;;4.35;;
32138;SDS011;18644;48.700;9.210;2023-07-08T01:03:29;6.28;;;3.80;;
32138;SDS011;18644;48.700;9.210;2023-07-08T01:05:58;5.53;;;3.85;;
32138;SDS011;18644;48.700;9.210;2023-07-08T01:08:26;6.07;;;3.60;;
32138;SDS011;18644;48.700;9.210;2023-07-08T01:11:00;7.00;;;3.88;;
32138;SDS011;18644;48.700;9.210;2023-07-08T01:13:30;5.28;;;3.72;;
32138;SDS011;18644;48.700;9.210;2023-07-08T01:16:02;6.07;;;3.72;;
32138;SDS011;18644;48.700;9.210;2023-07-08T01:18:29;6.18;;;4.00;;
32138;SDS011;18644;48.700;9.210;2023-07-08T01:21:00;6.65;;;4.22;;
32138;SDS011;18644;48.700;9.210;2023-07-08T01:23:32;6.07;;;4.22;;
32138;SDS011;18644;48.700;9.210;2023-07-08T01:26:00;6.05;;;4.00;;
32138;SDS011;18644;48.700;9.210;2023-07-08T01:28:27;6.55;;;3.70;;
32138;SDS011;18644;48.700;9.210;2023-07-08T01:30:56;6.65;;;4.63;;
32138;SDS011;18644;48.700;9.210;2023-07-08T01:33:23;8.40;;;4.10;;
32138;SDS011;18644;48.700;9.210;2023-07-08T01:35:51;7.90;;;4.30;;
32138;SDS011;18644;48.700;9.210;2023-07-08T01:38:21;5.25;;;3.53;;
32138;SDS011;18644;48.700;9.210;2023-07-08T01:40:53;5.77;;;3.70;;
32138;SDS011;18644;48.700;9.210;2023-07-08T01:43:22;4.53;;;3.42;;
32138;SDS011;18644;48.700;9.210;2023-07-08T01:45:49;5.45;;;3.67;;
32138;SDS011;18644;48.700;9.210;2023-07-08T01:48:18;5.85;;;4.13;;
32138;SDS011;18644;48.700;9.210;2023-07-08T01:50:49;4.82;;;3.08;;
32138;SDS011;18644;48.700;9.210;2023-07-08T01:53:21;9.48;;;4.78;;
32138;SDS011;18644;48.700;9.210;2023-07-08T01:55:56;7.07;;;4.70;;
32138;SDS011;18644;48.700;9.210;2023-07-08T01:58:23;6.55;;;3.80;;
32138;SDS011;18644;48.700;9.210;2023-07-08T02:00:50;5.13;;;3.25;;
32138;SDS011;18644;48.700;9.210;2023-07-08T02:03:18;5.32;;;3.80;;
32138;SDS011;18644;48.700;9.210;2023-07-08T02:05:45;5.88;;;3.88;;
32138;SDS011;18644;48.700;9.210;2023-07-08T02:08:12;5.03;;;3.42;;
32138;SDS011;18644;48.700;9.210;2023-07-08T02:10:39;5.18;;;3.95;;
32138;SDS011;18644;48.700;9.210;2023-07-08T02:13:09;5.00;;;3.47;;
32138;SDS011;18644;48.700;9.210;2023-07-08T02:15:36;5.75;;;3.58;;
32138;SDS011;18644;48.700;9.210;2023-07-08T02:18:03;6.95;;;3.92;;
32138;SDS011;18644;48.700;9.210;2023-07-08T02:20:29;6.13;;;3.92;;
32138;SDS011;18644;48.700;9.210;2023-07-08T02:22:56;5.82;;;3.40;;
32138;SDS011;18644;48.700;9.210;2023-07-08T02:25:23;5.93;;;4.05;;
32138;SDS011;18644;48.700;9.210;2023-07-08T02:27:51;6.00;;;4.10;;
32138;SDS011;18644;48.700;9.210;2023-07-08T02:30:20;6.97;;;3.95;;
32138;SDS011;18644;48.700;9.210;2023-07-08T02:32:47;5.95;;;3.88;;
32138;SDS011;18644;48.700;9.210;2023-07-08T02:35:21;7.63;;;3.97;;
32138;SDS011;18644;48.700;9.210;2023-07-08T02:37:49;5.72;;;3.22;;
32138;SDS011;18644;48.700;9.210;2023-07-08T02:40:16;5.18;;;3.83;;
32138;SDS011;18644;48.700;9.210;2023-07-08T02:42:43;6.05;;;3.92;;
32138;SDS011;18644;48.700;9.210;2023-07-08T02:45:10;5.78;;;4.07;;
32138;SDS011;18644;48.700;9.210;2023-07-08T02:47:39;6.80;;;4.20;;
32138;SDS011;18644;48.700;9.210;2023-07-08T02:50:07;5.55;;;3.92;;
32138;SDS011;18644;48.700;9.210;2023-07-08T02:52:35;5.78;;;3.78;;
32138;SDS011;18644;48.700;9.210;2023-07-08T02:55:02;7.43;;;4.03;;
32138;SDS011;18644;48.700;9.210;2023-07-08T02:57:30;5.93;;;4.07;;
32138;SDS011;18644;48.700;9.210;2023-07-08T02:59:57;7.82;;;4.55;;
32138;SDS011;18644;48.700;9.210;2023-07-08T03:02:26;6.47;;;4.00;;
32138;SDS011;18644;48.700;9.210;2023-07-08T03:04:54;8.00;;;3.83;;
32138;SDS011;18644;48.700;9.210;2023-07-08T03:07:24;5.80;;;4.03;;
32138;SDS011;18644;48.700;9.210;2023-07-08T03:09:51;8.30;;;4.38;;
32138;SDS011;18644;48.700;9.210;2023-07-08T03:12:17;5.88;;;3.63;;
32138;SDS011;18644;48.700;9.210;2023-07-08T03:14:44;9.02;;;4.38;;
32138;SDS011;18644;48.700;9.210;2023-07-08T03:17:11;6.65;;;4.03;;
32138;SDS011;18644;48.700;9.210;2023-07-08T03:19:38;6.10;;;4.03;;
32138;SDS011;18644;48.700;9.210;2023-07-08T03:22:06;6.03;;;4.05;;
32138;SDS011;18644;48.700;9.210;2023-07-08T03:24:33;5.78;;;3.67;;
32138;SDS011;18644;48.700;9.210;2023-07-08T03:27:00;4.95;;;3.92;;
32138;SDS011;18644;48.700;9.210;2023-07-08T03:29:30;5.70;;;3.78;;
32138;SDS011;18644;48.700;9.210;2023-07-08T03:31:57;6.75;;;4.10;;
32138;SDS011;18644;48.700;9.210;2023-07-08T03:34:24;5.60;;;3.83;;
32138;SDS011;18644;48.700;9.210;2023-07-08T03:36:50;6.03;;;3.83;;
32138;SDS011;18644;48.700;9.210;2023-07-08T03:39:20;5.65;;;3.65;;
32138;SDS011;18644;48.700;9.210;2023-07-08T03:41:50;7.03;;;3.97;;
32138;SDS011;18644;48.700;9.210;2023-07-08T03:44:18;5.78;;;3.75;;
32138;SDS011;18644;48.700;9.210;2023-07-08T03:46:46;6.78;;;3.97;;
32138;SDS011;18644;48.700;9.210;2023-07-08T03:49:14;5.53;;;4.03;;
32138;SDS011;18644;48.700;9.210;2023-07-08T03:51:44;5.22;;;3.42;;
32138;SDS011;18644;48.700;9.210;2023-07-08T03:54:11;6.10;;;4.05;;
32138;SDS011;18644;48.700;9.210;2023-07-08T03:56:41;5.55;;;3.50;;
32138;SDS011;18644;48.700;9.210;2023-07-08T03:59:08;4.65;;;3.33;;
32138;SDS011;18644;48.700;9.210;2023-07-08T04:01:36;5.20;;;3.65;;
32138;SDS011;18644;48.700;9.210;2023-07-08T04:04:06;12.50;;;4.10;;
32138;SDS011;18644;48.700;9.210;2023-07-08T04:06:35;4.35;;;3.25;;
32138;SDS011;18644;48.700;9.210;2023-07-08T04:09:02;5.72;;;3.75;;
32138;SDS011;18644;48.700;9.210;2023-07-08T04:11:29;4.45;;;3.28;;
32138;SDS011;18644;48.700;9.210;2023-07-08T04:13:57;6.70;;;4.25;;
32138;SDS011;18644;48.700;9.210;2023-07-08T04:16:25;6.28;;;4.38;;
32138;SDS011;18644;48.700;9.210;2023-07-08T04:18:56;4.95;;;3.88;;
32138;SDS011;18644;48.700;9.210;2023-07-08T04:21:23;5.75;;;3.80;;
32138;SDS011;18644;48.700;9.210;2023-07-08T04:23:51;6.25;;;4.13;;
32138;SDS011;18644;48.700;9.210;2023-07-08T04:26:18;6.20;;;3.83;;
32138;SDS011;18644;48.700;9.210;2023-07-08T04:28:45;4.95;;;3.47;;
32138;SDS011;18644;48.700;9.210;2023-07-08T04:31:13;5.97;;;3.83;;
32138;SDS011;18644;48.700;9.210;2023-07-08T04:33:40;6.55;;;4.38;;
32138;SDS011;18644;48.700;9.210;2023-07-08T04:36:09;5.15;;;3.92;;
32138;SDS011;18644;48.700;9.210;2023-07-08T04:38:39;6.00;;;4.15;;
32138;SDS011;18644;48.700;9.210;2023-07-08T04:41:06;4.97;;;3.42;;
32138;SDS011;18644;48.700;9.210;2023-07-08T04:43:33;5.55;;;4.00;;
32138;SDS011;18644;48.700;9.210;2023-07-08T04:46:00;5.03;;;3.40;;
32138;SDS011;18644;48.700;9.210;2023-07-08T04:48:29;7.43;;;3.75;;
32138;SDS011;18644;48.700;9.210;2023-07-08T04:50:57;7.35;;;3.85;;
32138;SDS011;18644;48.700;9.210;2023-07-08T04:53:24;6.45;;;4.45;;
32138;SDS011;18644;48.700;9.210;2023-07-08T04:55:52;7.05;;;3.97;;
32138;SDS011;18644;48.700;9.210;2023-07-08T04:58:22;6.38;;;4.07;;
32138;SDS011;18644;48.700;9.210;2023-07-08T05:00:49;6.97;;;4.70;;
32138;SDS011;18644;48.700;9.210;2023-07-08T05:03:16;4.80;;;3.50;;
32138;SDS011;18644;48.700;9.210;2023-07-08T05:05:44;4.50;;;3.33;;
32138;SDS011;18644;48.700;9.210;2023-07-08T05:08:11;6.57;;;4.30;;
32138;SDS011;18644;48.700;9.210;2023-07-08T05:10:38;4.72;;;3.75;;
32138;SDS011;18644;48.700;9.210;2023-07-08T05:13:06;6.32;;;3.80;;
32138;SDS011;18644;48.700;9.210;2023-07-08T05:15:33;6.65;;;4.20;;
32138;SDS011;18644;48.700;9.210;2023-07-08T05:18:00;6.93;;;4.00;;
32138;SDS011;18644;48.700;9.210;2023-07-08T05:20:27;5.57;;;4.05;;
32138;SDS011;18644;48.700;9.210;2023-07-08T05:22:57;6.90;;;4.13;;
32138;SDS011;18644;48.700;9.210;2023-07-08T05:25:24;6.55;;;4.22;;
32138;SDS011;18644;48.700;9.210;2023-07-08T05:27:52;5.60;;;4.13;;
32138;SDS011;18644;48.700;9.210;2023-07-08T05:30:20;8.05;;;4.18;;
32138;SDS011;18644;48.700;9.210;2023-07-08T05:32:46;10.45;;;4.57;;
32138;SDS011;18644;48.700;9.210;2023-07-08T05:35:13;6.45;;;4.35;;
32138;SDS011;18644;48.700;9.210;2023-07-08T05:37:41;5.65;;;4.22;;
32138;SDS011;18644;48.700;9.210;2023-07-08T05:40:13;5.95;;;4.13;;
32138;SDS011;18644;48.700;9.210;2023-07-08T05:42:40;5.13;;;3.65;;
32138;SDS011;18644;48.700;9.210;2023-07-08T05:45:07;4.70;;;3.97;;
32138;SDS011;18644;48.700;9.210;2023-07-08T05:47:35;6.20;;;3.75;;
32138;SDS011;18644;48.700;9.210;2023-07-08T05:50:02;7.10;;;4.88;;
32138;SDS011;18644;48.700;9.210;2023-07-08T05:52:30;5.65;;;3.65;;
32138;SDS011;18644;48.700;9.210;2023-07-08T05:54:57;5.38;;;4.03;;
32138;SDS011;18644;48.700;9.210;2023-07-08T05:57:25;5.78;;;4.13;;
32138;SDS011;18644;48.700;9.210;2023-07-08T05:59:52;6.45;;;4.13;;
32138;SDS011;18644;48.700;9.210;2023-07-08T06:02:19;7.10;;;4.80;;
32138;SDS011;18644;48.700;9.210;2023-07-08T06:04:48;5.97;;;4.03;;
32138;SDS011;18644;48.700;9.210;2023-07-08T06:07:15;5.38;;;3.80;;
32138;SDS011;18644;48.700;9.210;2023-07-08T06:09:42;4.70;;;3.53;;
32138;SDS011;18644;48.700;9.210;2023-07-08T06:12:10;7.07;;;3.67;;
32138;SDS011;18644;48.700;9.210;2023-07-08T06:14:38;8.07;;;3.97;;
32138;SDS011;18644;48.700;9.210;2023-07-08T06:17:05;5.43;;;3.72;;
32138;SDS011;18644;48.700;9.210;2023-07-08T06:19:32;5.18;;;4.00;;
32138;SDS011;18644;48.700;9.210;2023-07-08T06:21:59;4.95;;;3.85;;
32138;SDS011;18644;48.700;9.210;2023-07-08T06:24:26;6.40;;;4.22;;
32138;SDS011;18644;48.700;9.210;2023-07-08T06:26:53;5.80;;;3.67;;
32138;SDS011;18644;48.700;9.210;2023-07-08T06:29:20;5.07;;;3.63;;
32138;SDS011;18644;48.700;9.210;2023-07-08T06:31:48;5.95;;;3.83;;
32138;SDS011;18644;48.700;9.210;2023-07-08T06:34:15;7.13;;;4.00;;
32138;SDS011;18644;48.700;9.210;2023-07-08T06:36:41;7.30;;;4.00;;
32138;SDS011;18644;48.700;9.210;2023-07-08T06:39:08;5.47;;;3.78;;
32138;SDS011;18644;48.700;9.210;2023-07-08T06:41:36;5.93;;;3.90;;
32138;SDS011;18644;48.700;9.210;2023-07-08T06:44:03;5.80;;;4.13;;
32138;SDS011;18644;48.700;9.210;2023-07-08T06:46:30;4.07;;;3.35;;
32138;SDS011;18644;48.700;9.210;2023-07-08T06:48:58;5.38;;;3.92;;
32138;SDS011;18644;48.700;9.210;2023-07-08T06:51:25;4.95;;;3.65;;
32138;SDS011;18644;48.700;9.210;2023-07-08T06:53:53;6.13;;;3.60;;
32138;SDS011;18644;48.700;9.210;2023-07-08T06:56:20;6.93;;;3.17;;
32138;SDS011;18644;48.700;9.210;2023-07-08T06:58:47;5.35;;;3.20;;
32138;SDS011;18644;48.700;9.210;2023-07-08T07:01:14;4.80;;;3.65;;
32138;SDS011;18644;48.700;9.210;2023-07-08T07:03:42;6.38;;;3.30;;
32138;SDS011;18644;48.700;9.210;2023-07-08T07:06:11;4.80;;;3.28;;
32138;SDS011;18644;48.700;9.210;2023-07-08T07:08:38;5.57;;;3.40;;
32138;SDS011;18644;48.700;9.210;2023-07-08T07:11:05;5.10;;;3.40;;
32138;SDS011;18644;48.700;9.210;2023-07-08T07:13:32;4.05;;;3.30;;
32138;SDS011;18644;48.700;9.210;2023-07-08T07:15:59;5.10;;;3.50;;
32138;SDS011;18644;48.700;9.210;2023-07-08T07:18:26;5.00;;;3.50;;
32138;SDS011;18644;48.700;9.210;2023-07-08T07:20:54;4.32;;;3.40;;
32138;SDS011;18644;48.700;9.210;2023-07-08T07:23:22;5.57;;;3.75;;
32138;SDS011;18644;48.700;9.210;2023-07-08T07:25:49;6.15;;;3.53;;
32138;SDS011;18644;48.700;9.210;2023-07-08T07:28:16;5.15;;;3.13;;
32138;SDS011;18644;48.700;9.210;2023-07-08T07:30:44;5.15;;;3.22;;
32138;SDS011;18644;48.700;9.210;2023-07-08T07:33:12;4.10;;;3.28;;
32138;SDS011;18644;48.700;9.210;2023-07-08T07:35:43;6.40;;;3.53;;
32138;SDS011;18644;48.700;9.210;2023-07-08T07:38:10;4.35;;;3.28;;
32138;SDS011;18644;48.700;9.210;2023-07-08T07:40:41;5.15;;;3.92;;
32138;SDS011;18644;48.700;9.210;2023-07-08T07:43:08;5.43;;;3.45;;
32138;SDS011;18644;48.700;9.210;2023-07-08T07:45:35;3.67;;;2.95;;
32138;SDS011;18644;48.700;9.210;2023-07-08T07:48:02;4.97;;;3.28;;
32138;SDS011;18644;48.700;9.210;2023-07-08T07:50:30;3.88;;;3.10;;
32138;SDS011;18644;48.700;9.210;2023-07-08T07:52:57;4.18;;;3.30;;
32138;SDS011;18644;48.700;9.210;2023-07-08T07:55:24;4.30;;;3.17;;
32138;SDS011;18644;48.700;9.210;2023-07-08T07:57:52;4.80;;;2.90;;
32138;SDS011;18644;48.700;9.210;2023-07-08T08:00:19;4.78;;;3.30;;
32138;SDS011;18644;48.700;9.210;2023-07-08T08:02:46;4.63;;;2.83;;
32138;SDS011;18644;48.700;9.210;2023-07-08T08:05:13;4.45;;;3.08;;
32138;SDS011;18644;48.700;9.210;2023-07-08T08:07:40;4.13;;;3.13;;
32138;SDS011;18644;48.700;9.210;2023-07-08T08:10:07;4.05;;;2.85;;
32138;SDS011;18644;48.700;9.210;2023-07-08T08:12:35;5.30;;;3.15;;
32138;SDS011;18644;48.700;9.210;2023-07-08T08:15:03;3.85;;;2.50;;
32138;SDS011;18644;48.700;9.210;2023-07-08T08:17:32;3.78;;;2.53;;
32138;SDS011;18644;48.700;9.210;2023-07-08T08:19:59;4.28;;;2.70;;
32138;SDS011;18644;48.700;9.210;2023-07-08T08:22:26;4.43;;;2.80;;
32138;SDS011;18644;48.700;9.210;2023-07-08T08:24:52;6.07;;;2.65;;
32138;SDS011;18644;48.700;9.210;2023-07-08T08:27:20;3.78;;;2.40;;
32138;SDS011;18644;48.700;9.210;2023-07-08T08:29:46;3.72;;;2.88;;
32138;SDS011;18644;48.700;9.210;2023-07-08T08:32:15;6.22;;;3.00;;
32138;SDS011;18644;48.700;9.210;2023-07-08T08:34:42;4.07;;;2.97;;
32138;SDS011;18644;48.700;9.210;2023-07-08T08:37:10;3.35;;;2.63;;
32138;SDS011;18644;48.700;9.210;2023-07-08T08:39:37;4.32;;;3.03;;
32138;SDS011;18644;48.700;9.210;2023-07-08T08:42:04;3.47;;;2.70;;
32138;SDS011;18644;48.700;9.210;2023-07-08T08:44:35;3.33;;;2.53;;
32138;SDS011;18644;48.700;9.210;2023-07-08T08:47:04;2.80;;;2.28;;
32138;SDS011;18644;48.700;9.210;2023-07-08T08:49:41;3.50;;;2.42;;
32138;SDS011;18644;48.700;9.210;2023-07-08T08:52:15;3.70;;;2.70;;
32138;SDS011;18644;48.700;9.210;2023-07-08T08:54:42;4.78;;;2.58;;
32138;SDS011;18644;48.700;9.210;2023-07-08T08:57:12;2.80;;;2.42;;
32138;SDS011;18644;48.700;9.210;2023-07-08T08:59:57;5.13;;;2.10;;
32138;SDS011;18644;48.700;9.210;2023-07-08T09:02:28;3.88;;;2.35;;
32138;SDS011;18644;48.700;9.210;2023-07-08T09:05:03;3.85;;;2.40;;
32138;SDS011;18644;48.700;9.210;2023-07-08T09:07:34;5.10;;;2.60;;
32138;SDS011;18644;48.700;9.210;2023-07-08T09:10:13;2.88;;;2.15;;
32138;SDS011;18644;48.700;9.210;2023-07-08T09:12:53;4.55;;;2.47;;
32138;SDS011;18644;48.700;9.210;2023-07-08T09:15:21;31.00;;;5.38;;
32138;SDS011;18644;48.700;9.210;2023-07-08T09:17:48;5.25;;;2.60;;
32138;SDS011;18644;48.700;9.210;2023-07-08T09:20:21;5.85;;;2.30;;
32138;SDS011;18644;48.700;9.210;2023-07-08T09:25:24;17.90;;;4.70;;
32138;SDS011;18644;48.700;9.210;2023-07-08T09:27:54;2.78;;;2.40;;
32138;SDS011;18644;48.700;9.210;2023-07-08T09:30:22;2.88;;;2.40;;
32138;SDS011;18644;48.700;9.210;2023-07-08T09:32:53;3.22;;;2.30;;
32138;SDS011;18644;48.700;9.210;2023-07-08T09:35:23;2.83;;;2.35;;
32138;SDS011;18644;48.700;9.210;2023-07-08T09:37:52;2.55;;;2.13;;
32138;SDS011;18644;48.700;9.210;2023-07-08T09:40:21;1.77;;;1.35;;
32138;SDS011;18644;48.700;9.210;2023-07-08T09:42:57;3.15;;;1.75;;
32138;SDS011;18644;48.700;9.210;2023-07-08T09:45:29;1.80;;;1.70;;
32138;SDS011;18644;48.700;9.210;2023-07-08T09:48:14;8.20;;;2.30;;
32138;SDS011;18644;48.700;9.210;2023-07-08T09:50:46;4.95;;;2.28;;
32138;SDS011;18644;48.700;9.210;2023-07-08T09:53:15;2.83;;;2.45;;
32138;SDS011;18644;48.700;9.210;2023-07-08T09:55:42;4.03;;;2.45;;
32138;SDS011;18644;48.700;9.210;2023-07-08T09:58:11;3.58;;;2.53;;
32138;SDS011;18644;48.700;9.210;2023-07-08T10:00:42;3.88;;;2.38;;
32138;SDS011;18644;48.700;9.210;2023-07-08T10:03:11;3.90;;;2.30;;
32138;SDS011;18644;48.700;9.210;2023-07-08T10:05:45;2.63;;;2.22;;
32138;SDS011;18644;48.700;9.210;2023-07-08T10:08:18;4.60;;;1.83;;
32138;SDS011;18644;48.700;9.210;2023-07-08T10:10:49;2.65;;;2.10;;
32138;SDS011;18644;48.700;9.210;2023-07-08T10:13:26;2.65;;;1.83;;
32138;SDS011;18644;48.700;9.210;2023-07-08T10:16:04;2.30;;;1.90;;
32138;SDS011;18644;48.700;9.210;2023-07-08T10:18:39;2.63;;;2.00;;
32138;SDS011;18644;48.700;9.210;2023-07-08T10:21:08;2.40;;;2.00;;
32138;SDS011;18644;48.700;9.210;2023-07-08T10:23:45;4.63;;;2.40;;
32138;SDS011;18644;48.700;9.210;2023-07-08T10:26:19;3.05;;;2.13;;
32138;SDS011;18644;48.700;9.210;2023-07-08T10:28:55;2.70;;;1.80;;
32138;SDS011;18644;48.700;9.210;2023-07-08T10:31:40;1.52;;;1.42;;
32138;SDS011;18644;48.700;9.210;2023-07-08T10:34:17;2.13;;;1.70;;
32138;SDS011;18644;48.700;9.210;2023-07-08T10:36:57;2.42;;;1.70;;
32138;SDS011;18644;48.700;9.210;2023-07-08T10:39:35;1.95;;;1.52;;
32138;SDS011;18644;48.700;9.210;2023-07-08T10:42:31;2.65;;;1.50;;
32138;SDS011;18644;48.700;9.210;2023-07-08T10:45:13;2.25;;;1.60;;
32138;SDS011;18644;48.700;9.210;2023-07-08T10:47:54;2.13;;;1.50;;
32138;SDS011;18644;48.700;9.210;2023-07-08T10:50:40;1.60;;;1.40;;
32138;SDS011;18644;48.700;9.210;2023-07-08T10:53:37;2.70;;;1.63;;
32138;SDS011;18644;48.700;9.210;2023-07-08T10:56:19;2.05;;;1.73;;
32138;SDS011;18644;48.700;9.210;2023-07-08T10:59:06;1.52;;;1.40;;
32138;SDS011;18644;48.700;9.210;2023-07-08T11:05:28;3.00;;;1.65;;
32138;SDS011;18644;48.700;9.210;2023-07-08T11:08:01;2.25;;;1.52;;
32138;SDS011;18644;48.700;9.210;2023-07-08T11:10:38;1.98;;;1.50;;
32138;SDS011;18644;48.700;9.210;2023-07-08T11:13:14;2.30;;;1.60;;
32138;SDS011;18644;48.700;9.210;2023-07-08T11:15:47;2.97;;;1.60;;
32138;SDS011;18644;48.700;9.210;2023-07-08T11:18:21;2.03;;;1.65;;
32138;SDS011;18644;48.700;9.210;2023-07-08T11:20:57;1.83;;;1.60;;
32138;SDS011;18644;48.700;9.210;2023-07-08T11:23:32;2.42;;;1.65;;
32138;SDS011;18644;48.700;9.210;2023-07-08T11:26:09;3.35;;;1.65;;
32138;SDS011;18644;48.700;9.210;2023-07-08T11:28:42;2.78;;;1.60;;
32138;SDS011;18644;48.700;9.210;2023-07-08T11:31:10;1.67;;;1.50;;
32138;SDS011;18644;48.700;9.210;2023-07-08T11:33:38;3.67;;;1.67;;
32138;SDS011;18644;48.700;9.210;2023-07-08T11:36:08;1.60;;;1.50;;
32138;SDS011;18644;48.700;9.210;2023-07-08T11:38:36;2.40;;;1.63;;
32138;SDS011;18644;48.700;9.210;2023-07-08T11:41:17;1.50;;;1.40;;
32138;SDS011;18644;48.700;9.210;2023-07-08T11:43:48;1.60;;;1.27;;
32138;SDS011;18644;48.700;9.210;2023-07-08T11:46:19;2.67;;;1.45;;
32138;SDS011;18644;48.700;9.210;2023-07-08T11:48:51;2.72;;;1.60;;
32138;SDS011;18644;48.700;9.210;2023-07-08T11:51:22;1.95;;;1.63;;
32138;SDS011;18644;48.700;9.210;2023-07-08T11:53:58;2.10;;;1.77;;
32138;SDS011;18644;48.700;9.210;2023-07-08T11:56:29;2.13;;;1.55;;
32138;SDS011;18644;48.700;9.210;2023-07-08T11:59:15;3.03;;;1.77;;
32138;SDS011;18644;48.700;9.210;2023-07-08T12:01:48;2.03;;;1.60;;
32138;SDS011;18644;48.700;9.210;2023-07-08T12:04:27;2.40;;;1.70;;
32138;SDS011;18644;48.700;9.210;2023-07-08T12:07:06;2.88;;;1.90;;
32138;SDS011;18644;48.700;9.210;2023-07-08T12:12:21;1.27;;;1.17;;
32138;SDS011;18644;48.700;9.210;2023-07-08T12:14:52;1.63;;;1.38;;
32138;SDS011;18644;48.700;9.210;2023-07-08T12:17:30;1.35;;;1.23;;
32138;SDS011;18644;48.700;9.210;2023-07-08T12:19:57;2.20;;;1.50;;
32138;SDS011;18644;48.700;9.210;2023-07-08T12:22:29;1.85;;;1.55;;
32138;SDS011;18644;48.700;9.210;2023-07-08T12:24:56;2.58;;;1.75;;
32138;SDS011;18644;48.700;9.210;2023-07-08T12:27:30;1.60;;;1.35;;
32138;SDS011;18644;48.700;9.210;2023-07-08T12:29:57;3.05;;;1.40;;
32138;SDS011;18644;48.700;9.210;2023-07-08T12:32:24;2.72;;;2.00;;
32138;SDS011;18644;48.700;9.210;2023-07-08T12:34:53;2.15;;;1.27;;
32138;SDS011;18644;48.700;9.210;2023-07-08T12:37:20;3.15;;;1.50;;
32138;SDS011;18644;48.700;9.210;2023-07-08T12:39:53;1.55;;;1.30;;
32138;SDS011;18644;48.700;9.210;2023-07-08T12:42:24;1.80;;;1.40;;
32138;SDS011;18644;48.700;9.210;2023-07-08T12:44:53;2.25;;;1.60;;
32138;SDS011;18644;48.700;9.210;2023-07-08T12:47:20;2.08;;;1.60;;
32138;SDS011;18644;48.700;9.210;2023-07-08T12:49:47;2.88;;;1.70;;
32138;SDS011;18644;48.700;9.210;2023-07-08T12:52:20;1.48;;;1.38;;
32138;SDS011;18644;48.700;9.210;2023-07-08T12:54:48;1.50;;;1.40;;
32138;SDS011;18644;48.700;9.210;2023-07-08T12:57:15;3.00;;;1.27;;
32138;SDS011;18644;48.700;9.210;2023-07-08T12:59:43;2.30;;;1.63;;
32138;SDS011;18644;48.700;9.210;2023-07-08T13:02:15;1.30;;;1.20;;
32138;SDS011;18644;48.700;9.210;2023-07-08T13:04:44;1.30;;;1.20;;
32138;SDS011;18644;48.700;9.210;2023-07-08T13:07:20;2.03;;;1.42;;
32138;SDS011;18644;48.700;9.210;2023-07-08T13:10:01;2.22;;;1.42;;
32138;SDS011;18644;48.700;9.210;2023-07-08T13:12:29;2.65;;;1.50;;
32138;SDS011;18644;48.700;9.210;2023-07-08T13:15:00;2.60;;;1.25;;
32138;SDS011;18644;48.700;9.210;2023-07-08T13:17:30;1.65;;;1.20;;
32138;SDS011;18644;48.700;9.210;2023-07-08T13:19:59;1.02;;;0.93;;
32138;SDS011;18644;48.700;9.210;2023-07-08T13:22:26;1.50;;;1.20;;
32138;SDS011;18644;48.700;9.210;2023-07-08T13:24:58;1.83;;;1.23;;
32138;SDS011;18644;48.700;9.210;2023-07-08T13:27:27;1.13;;;1.02;;
32138;SDS011;18644;48.700;9.210;2023-07-08T13:29:54;1.35;;;1.10;;
32138;SDS011;18644;48.700;9.210;2023-07-08T13:32:41;1.92;;;1.38;;
32138;SDS011;18644;48.700;9.210;2023-07-08T13:35:20;1.55;;;1.23;;
32138;SDS011;18644;48.700;9.210;2023-07-08T13:37:49;2.03;;;1.33;;
32138;SDS011;18644;48.700;9.210;2023-07-08T13:40:16;1.70;;;1.17;;
32138;SDS011;18644;48.700;9.210;2023-07-08T13:42:46;1.70;;;1.20;;
32138;SDS011;18644;48.700;9.210;2023-07-08T13:45:19;3.30;;;1.20;;
32138;SDS011;18644;48.700;9.210;2023-07-08T13:47:59;2.15;;;1.50;;
32138;SDS011;18644;48.700;9.210;2023-07-08T13:50:29;1.70;;;1.35;;
32138;SDS011;18644;48.700;9.210;2023-07-08T13:53:14;2.97;;;1.38;;
32138;SDS011;18644;48.700;9.210;2023-07-08T13:55:44;1.40;;;1.30;;
32138;SDS011;18644;48.700;9.210;2023-07-08T13:58:14;1.63;;;1.42;;
32138;SDS011;18644;48.700;9.210;2023-07-08T14:00:43;2.55;;;1.20;;
32138;SDS011;18644;48.700;9.210;2023-07-08T14:03:12;2.45;;;1.55;;
32138;SDS011;18644;48.700;9.210;2023-07-08T14:05:43;3.20;;;1.70;;
32138;SDS011;18644;48.700;9.210;2023-07-08T14:08:12;2.60;;;1.50;;
32138;SDS011;18644;48.700;9.210;2023-07-08T14:10:42;2.00;;;1.52;;
32138;SDS011;18644;48.700;9.210;2023-07-08T14:13:10;3.63;;;1.63;;
32138;SDS011;18644;48.700;9.210;2023-07-08T14:15:38;1.95;;;1.27;;
32138;SDS011;18644;48.700;9.210;2023-07-08T14:18:05;1.42;;;1.33;;
32138;SDS011;18644;48.700;9.210;2023-07-08T14:20:37;1.75;;;1.38;;
32138;SDS011;18644;48.700;9.210;2023-07-08T14:23:04;2.33;;;1.40;;
32138;SDS011;18644;48.700;9.210;2023-07-08T14:25:30;1.98;;;1.38;;
32138;SDS011;18644;48.700;9.210;2023-07-08T14:27:57;1.85;;;1.40;;
32138;SDS011;18644;48.700;9.210;2023-07-08T14:30:24;3.13;;;1.45;;
32138;SDS011;18644;48.700;9.210;2023-07-08T14:32:51;1.55;;;1.27;;
32138;SDS011;18644;48.700;9.210;2023-07-08T14:35:19;1.60;;;1.50;;
32138;SDS011;18644;48.700;9.210;2023-07-08T14:37:52;1.48;;;1.38;;
32138;SDS011;18644;48.700;9.210;2023-07-08T14:40:23;1.85;;;1.42;;
32138;SDS011;18644;48.700;9.210;2023-07-08T14:42:54;2.10;;;1.70;;
32138;SDS011;18644;48.700;9.210;2023-07-08T14:45:28;1.90;;;1.27;;
32138;SDS011;18644;48.700;9.210;2023-07-08T14:47:58;2.75;;;1.45;;
32138;SDS011;18644;48.700;9.210;2023-07-08T14:50:25;1.75;;;1.30;;
32138;SDS011;18644;48.700;9.210;2023-07-08T14:52:56;2.63;;;1.63;;
32138;SDS011;18644;48.700;9.210;2023-07-08T14:55:22;2.67;;;1.60;;
32138;SDS011;18644;48.700;9.210;2023-07-08T14:57:49;1.90;;;1.38;;
32138;SDS011;18644;48.700;9.210;2023-07-08T15:00:17;2.47;;;1.50;;
32138;SDS011;18644;48.700;9.210;2023-07-08T15:02:46;3.10;;;1.50;;
32138;SDS011;18644;48.700;9.210;2023-07-08T15:05:17;2.45;;;1.50;;
32138;SDS011;18644;48.700;9.210;2023-07-08T15:07:48;1.20;;;1.02;;
32138;SDS011;18644;48.700;9.210;2023-07-08T15:10:17;2.38;;;1.48;;
32138;SDS011;18644;48.700;9.210;2023-07-08T15:12:45;2.00;;;1.40;;
32138;SDS011;18644;48.700;9.210;2023-07-08T15:15:14;1.50;;;1.33;;
32138;SDS011;18644;48.700;9.210;2023-07-08T15:17:43;3.78;;;1.30;;